Time;durP1;ratioP1;P1;durP2;ratioP2;P2;SDS_P1;SDS_P2;PMS_P1;PMS_P2;Temp;Humidity;BMP_temperature;BMP_pressure;BME280_temperature;BME280_humidity;BME280_pressure;Samples;Min_cycle;Max_cycle;Signal;HPM_P1;HPM_P2
2021/05/01 00:01:49;;;;;;;16.77;12.03;;;10.90;99.90;;;;;;5056889;28;20174;-52
2021/05/01 00:04:15;;;;;;;13.47;12.07;;;10.90;99.90;;;;;;5066567;28;20209;-48
2021/05/01 00:06:40;;;;;;;13.33;12.00;;;10.90;99.90;;;;;;5077059;28;20545;-52
2021/05/01 00:09:06;;;;;;;14.23;12.40;;;10.90;99.90;;;;;;5069177;28;20653;-46
2021/05/01 00:11:32;;;;;;;15.73;12.13;;;10.90;99.90;;;;;;5075665;28;20233;-46
2021/05/01 00:13:58;;;;;;;14.60;13.13;;;11.00;99.90;;;;;;5053372;28;20650;-48
2021/05/01 00:16:25;;;;;;;13.90;12.50;;;11.00;99.90;;;;;;5056610;28;20206;-44
2021/05/01 00:18:52;;;;;;;14.33;12.83;;;11.00;99.90;;;;;;5058024;28;20178;-47
2021/05/01 00:21:17;;;;;;;15.40;13.80;;;10.90;99.90;;;;;;5056648;28;20183;-44
2021/05/01 00:23:43;;;;;;;14.03;12.63;;;10.90;99.90;;;;;;5060139;28;20305;-54
2021/05/01 00:26:11;;;;;;;14.80;13.20;;;10.90;99.90;;;;;;5075473;28;20543;-45
2021/05/01 00:28:37;;;;;;;14.53;13.07;;;10.80;99.90;;;;;;5075624;28;20186;-47
2021/05/01 00:31:02;;;;;;;14.37;12.93;;;10.90;99.90;;;;;;5055758;28;20195;-46
2021/05/01 00:33:28;;;;;;;15.10;13.50;;;10.80;99.90;;;;;;5056106;28;20176;-47
2021/05/01 00:35:53;;;;;;;15.00;13.50;;;10.80;99.90;;;;;;5075080;28;20190;-52
2021/05/01 00:38:19;;;;;;;14.77;13.37;;;10.70;99.90;;;;;;5074538;28;20194;-47
2021/05/01 00:40:44;;;;;;;15.50;13.77;;;10.70;99.90;;;;;;5056581;28;20190;-45
2021/05/01 00:43:10;;;;;;;15.70;14.00;;;10.70;99.90;;;;;;5056253;28;20216;-50
2021/05/01 00:45:36;;;;;;;16.10;14.50;;;10.60;99.90;;;;;;5054639;28;20183;-47
2021/05/01 00:48:01;;;;;;;15.60;13.97;;;10.60;99.90;;;;;;5053806;28;20581;-47
2021/05/01 00:50:27;;;;;;;14.20;12.77;;;10.60;99.90;;;;;;5072509;28;20186;-50
2021/05/01 00:52:52;;;;;;;16.67;14.40;;;10.60;99.90;;;;;;5073134;28;20190;-50
2021/05/01 00:55:18;;;;;;;15.90;13.23;;;10.60;99.90;;;;;;5057213;28;20182;-48
2021/05/01 00:57:44;;;;;;;16.27;14.57;;;10.60;99.90;;;;;;5054217;28;20198;-50
2021/05/01 01:00:22;;;;;;;15.70;14.10;;;10.60;99.90;;;;;;5069144;28;20201;-49
2021/05/01 01:02:48;;;;;;;15.87;14.27;;;12.30;99.90;;;;;;5074777;28;20177;-50
2021/05/01 01:05:14;;;;;;;15.70;14.10;;;10.70;99.90;;;;;;5074223;28;20507;-46
2021/05/01 01:07:39;;;;;;;17.77;15.97;;;10.70;99.90;;;;;;5076216;28;20645;-47
2021/05/01 01:10:06;;;;;;;17.20;15.43;;;10.70;99.90;;;;;;5061292;28;20269;-53
2021/05/01 01:12:31;;;;;;;16.20;14.50;;;10.80;99.90;;;;;;5055327;28;20253;-50
2021/05/01 01:14:58;;;;;;;16.07;14.37;;;10.70;99.90;;;;;;5066879;28;20575;-52
2021/05/01 01:17:24;;;;;;;16.53;14.83;;;10.70;99.90;;;;;;5075333;28;20322;-45
2021/05/01 01:19:50;;;;;;;16.60;14.90;;;10.80;99.90;;;;;;5059929;28;20603;-46
2021/05/01 01:22:17;;;;;;;15.60;14.00;;;10.80;99.90;;;;;;5055158;28;20524;-55
2021/05/01 01:24:43;;;;;;;17.50;15.63;;;10.90;99.90;;;;;;5069719;28;20265;-47
2021/05/01 01:27:09;;;;;;;18.50;16.53;;;10.90;99.90;;;;;;5074980;28;20249;-50
2021/05/01 01:29:37;;;;;;;18.10;16.10;;;11.00;99.90;;;;;;5062816;28;20630;-43
2021/05/01 01:32:04;;;;;;;16.20;14.47;;;11.00;99.90;;;;;;5055113;28;20678;-53
2021/05/01 01:34:30;;;;;;;16.20;14.60;;;11.00;99.90;;;;;;5067459;28;20179;-50
2021/05/01 01:36:56;;;;;;;17.00;15.23;;;11.00;99.90;;;;;;5075206;28;20795;-50
2021/05/01 01:39:21;;;;;;;16.30;14.60;;;10.90;99.90;;;;;;5073757;28;20195;-44
2021/05/01 01:41:47;;;;;;;16.93;15.23;;;10.80;99.90;;;;;;5075009;28;20260;-46
2021/05/01 01:44:13;;;;;;;18.30;16.40;;;10.80;99.90;;;;;;5066586;28;20183;-45
2021/05/01 01:46:39;;;;;;;17.63;15.83;;;10.70;99.90;;;;;;5054930;28;20555;-47
2021/05/01 01:49:04;;;;;;;17.00;15.30;;;10.60;99.90;;;;;;5061276;28;20228;-48
2021/05/01 01:51:30;;;;;;;18.77;16.20;;;10.60;99.90;;;;;;5074800;28;20205;-43
2021/05/01 01:53:55;;;;;;;17.63;15.70;;;10.50;99.90;;;;;;5069847;28;20218;-46
2021/05/01 01:56:21;;;;;;;17.10;15.37;;;10.50;99.90;;;;;;5055140;28;20658;-50
2021/05/01 01:58:47;;;;;;;18.03;16.23;;;10.50;99.90;;;;;;5058272;28;20217;-47
2021/05/01 02:01:12;;;;;;;17.53;15.73;;;10.60;99.90;;;;;;5074770;28;20665;-47
2021/05/01 02:03:38;;;;;;;17.97;16.17;;;10.60;99.90;;;;;;5072532;28;20179;-42
2021/05/01 02:06:05;;;;;;;17.87;16.07;;;10.60;99.90;;;;;;5054590;28;20214;-56
2021/05/01 02:08:31;;;;;;;19.60;16.80;;;10.60;99.90;;;;;;5038417;28;20229;-47
2021/05/01 02:10:56;;;;;;;19.00;17.10;;;10.40;99.90;;;;;;5074030;28;20202;-52
2021/05/01 02:13:22;;;;;;;19.33;16.87;;;10.40;99.90;;;;;;5074542;28;20206;-48
2021/05/01 02:15:47;;;;;;;19.30;17.30;;;10.30;99.90;;;;;;5055044;28;20203;-46
2021/05/01 02:18:13;;;;;;;21.00;18.80;;;10.30;99.90;;;;;;5054892;28;20262;-42
2021/05/01 02:20:39;;;;;;;19.87;17.57;;;10.20;99.90;;;;;;5073451;28;20277;-48
2021/05/01 02:23:06;;;;;;;20.50;18.17;;;10.20;99.90;;;;;;5074636;28;20519;-48
2021/05/01 02:25:32;;;;;;;20.37;18.10;;;10.10;99.90;;;;;;5056832;28;20224;-47
2021/05/01 02:27:58;;;;;;;21.00;18.77;;;10.20;99.90;;;;;;5054317;28;20179;-47
2021/05/01 02:30:26;;;;;;;20.30;18.27;;;10.20;99.90;;;;;;5070436;28;20186;-44
2021/05/01 02:32:53;;;;;;;19.70;17.60;;;10.30;99.90;;;;;;5074313;28;20690;-44
2021/05/01 02:35:21;;;;;;;20.73;18.53;;;10.30;99.90;;;;;;5059005;28;20191;-46
2021/05/01 02:37:48;;;;;;;20.50;18.40;;;10.40;99.90;;;;;;5058356;28;20739;-46
2021/05/01 02:40:15;;;;;;;20.33;18.13;;;10.30;99.90;;;;;;5062730;28;20201;-53
2021/05/01 02:42:42;;;;;;;21.13;18.93;;;10.20;99.90;;;;;;5056505;28;20639;-45
2021/05/01 02:45:10;;;;;;;20.00;17.67;;;10.20;99.90;;;;;;5056690;28;20261;-46
2021/05/01 02:47:36;;;;;;;21.23;18.53;;;10.20;99.90;;;;;;5072672;28;20595;-43
2021/05/01 02:50:03;;;;;;;21.23;18.93;;;10.20;99.90;;;;;;5066602;28;20546;-49
2021/05/01 02:52:29;;;;;;;21.13;18.93;;;10.30;99.90;;;;;;5073275;28;20198;-51
2021/05/01 02:54:54;;;;;;;21.73;19.10;;;10.30;99.90;;;;;;5054327;28;20206;-43
2021/05/01 02:57:20;;;;;;;20.73;18.63;;;10.50;99.90;;;;;;5053895;28;20199;-54
2021/05/01 02:59:45;;;;;;;20.20;18.00;;;10.60;99.90;;;;;;5061285;28;20257;-47
2021/05/01 03:02:11;;;;;;;21.67;19.37;;;10.60;99.90;;;;;;5053515;28;20171;-46
2021/05/01 03:04:36;;;;;;;21.77;19.43;;;10.60;99.90;;;;;;5070018;28;20179;-44
2021/05/01 03:07:02;;;;;;;22.10;19.80;;;10.60;99.90;;;;;;5073696;28;20194;-53
2021/05/01 03:09:28;;;;;;;20.77;18.63;;;10.60;99.90;;;;;;5072118;28;20190;-52
2021/05/01 03:11:54;;;;;;;20.93;18.77;;;10.60;99.90;;;;;;5073672;28;20213;-49
2021/05/01 03:14:19;;;;;;;21.20;19.00;;;10.60;99.90;;;;;;5061560;28;20262;-42
2021/05/01 03:16:45;;;;;;;21.90;19.57;;;10.50;99.90;;;;;;5053271;28;20262;-52
2021/05/01 03:19:11;;;;;;;23.63;21.17;;;10.50;99.90;;;;;;5063827;28;20257;-52
2021/05/01 03:21:37;;;;;;;21.13;18.47;;;10.50;99.90;;;;;;5073785;28;20166;-47
2021/05/01 03:24:03;;;;;;;20.73;18.63;;;10.50;99.90;;;;;;5066818;28;20603;-47
2021/05/01 03:26:28;;;;;;;20.97;18.70;;;10.60;99.90;;;;;;5057645;28;20231;-46
2021/05/01 03:28:54;;;;;;;21.23;18.93;;;10.70;99.90;;;;;;5070829;28;20193;-55
2021/05/01 03:31:19;;;;;;;21.80;19.60;;;10.70;99.90;;;;;;5077789;28;20183;-47
2021/05/01 03:33:45;;;;;;;21.23;19.03;;;10.70;99.90;;;;;;5066309;28;20182;-44
2021/05/01 03:36:10;;;;;;;21.03;18.80;;;10.70;99.90;;;;;;5057796;28;20197;-43
2021/05/01 03:38:36;;;;;;;23.00;20.60;;;10.70;99.90;;;;;;5066531;28;20269;-43
2021/05/01 03:41:03;;;;;;;21.30;19.00;;;10.70;99.90;;;;;;5077223;28;20174;-46
2021/05/01 03:43:28;;;;;;;27.40;20.87;;;10.70;99.90;;;;;;5069639;28;20187;-50
2021/05/01 03:45:55;;;;;;;22.33;20.03;;;10.60;99.90;;;;;;5057188;28;20197;-47
2021/05/01 03:48:21;;;;;;;23.03;20.37;;;10.50;99.90;;;;;;5064620;28;20578;-53
2021/05/01 03:50:48;;;;;;;22.10;19.77;;;10.40;99.90;;;;;;5077637;28;20171;-42
2021/05/01 03:53:13;;;;;;;23.53;21.03;;;10.30;99.90;;;;;;5071584;28;20237;-45
2021/05/01 03:55:39;;;;;;;22.73;20.33;;;10.30;99.90;;;;;;5058352;28;20179;-47
2021/05/01 03:58:04;;;;;;;23.30;20.90;;;10.30;99.90;;;;;;5060681;28;20225;-51
2021/05/01 04:00:30;;;;;;;22.80;20.50;;;10.30;99.90;;;;;;5077107;28;20171;-47
2021/05/01 04:02:55;;;;;;;24.73;22.13;;;10.30;99.90;;;;;;5075420;28;20174;-51
2021/05/01 04:05:21;;;;;;;23.80;21.30;;;10.20;99.90;;;;;;5068386;28;20224;-49
2021/05/01 04:07:47;;;;;;;24.77;22.27;;;10.20;99.90;;;;;;5076760;28;20183;-46
2021/05/01 04:10:13;;;;;;;24.53;22.00;;;10.20;99.90;;;;;;5056849;28;20254;-45
2021/05/01 04:12:38;;;;;;;23.60;21.10;;;10.20;99.90;;;;;;5056491;28;20620;-45
2021/05/01 04:15:04;;;;;;;23.47;20.97;;;10.20;99.90;;;;;;5066105;28;20175;-52
2021/05/01 04:17:30;;;;;;;24.83;22.23;;;10.30;99.90;;;;;;5057090;28;20278;-51
2021/05/01 04:19:55;;;;;;;25.43;22.80;;;10.30;99.90;;;;;;5072828;28;20198;-50
2021/05/01 04:22:22;;;;;;;24.00;21.40;;;10.30;99.90;;;;;;5076921;28;20511;-52
2021/05/01 04:24:48;;;;;;;23.10;20.67;;;10.50;99.90;;;;;;5067235;28;20223;-49
2021/05/01 04:27:14;;;;;;;24.17;21.57;;;10.60;99.90;;;;;;5076706;28;20194;-49
2021/05/01 04:29:39;;;;;;;23.63;21.20;;;10.80;99.90;;;;;;5063227;28;20175;-43
2021/05/01 04:32:05;;;;;;;24.10;21.57;;;10.90;99.90;;;;;;5056187;28;20271;-43
2021/05/01 04:34:31;;;;;;;22.77;20.43;;;10.90;99.90;;;;;;5062766;28;20248;-46
2021/05/01 04:36:56;;;;;;;25.17;22.63;;;11.00;99.90;;;;;;5056163;28;20195;-49
2021/05/01 04:39:22;;;;;;;22.43;20.13;;;11.10;99.90;;;;;;5074152;28;20197;-42
2021/05/01 04:41:49;;;;;;;23.57;21.17;;;11.10;99.90;;;;;;5076097;28;20344;-42
2021/05/01 04:44:15;;;;;;;22.53;20.17;;;11.30;99.90;;;;;;5060237;28;20209;-50
2021/05/01 04:46:41;;;;;;;23.87;21.37;;;11.40;99.90;;;;;;5063102;28;20199;-43
2021/05/01 04:49:09;;;;;;;21.90;19.63;;;11.40;99.90;;;;;;5056688;28;20186;-50
2021/05/01 04:51:35;;;;;;;22.37;20.07;;;11.50;99.90;;;;;;5067011;28;20293;-42
2021/05/01 04:54:03;;;;;;;22.33;20.03;;;11.60;99.90;;;;;;5076225;28;20249;-46
2021/05/01 04:56:28;;;;;;;22.43;20.03;;;11.60;99.90;;;;;;5056269;28;20290;-46
2021/05/01 04:58:54;;;;;;;21.27;19.17;;;12.00;99.90;;;;;;5068190;28;20273;-47
2021/05/01 05:01:20;;;;;;;21.20;19.07;;;11.80;99.90;;;;;;5074096;28;20186;-52
2021/05/01 05:03:45;;;;;;;22.60;20.30;;;11.70;99.90;;;;;;5055212;28;20214;-46
2021/05/01 05:06:11;;;;;;;22.30;19.97;;;11.60;99.90;;;;;;5074497;28;20266;-53
2021/05/01 05:08:37;;;;;;;22.00;19.80;;;11.50;99.90;;;;;;5074326;28;20518;-48
2021/05/01 05:11:02;;;;;;;21.80;19.53;;;11.20;99.90;;;;;;5074753;28;20206;-46
2021/05/01 05:13:28;;;;;;;23.47;20.80;;;11.20;99.90;;;;;;5076155;28;20178;-45
2021/05/01 05:15:54;;;;;;;22.53;20.13;;;11.30;99.90;;;;;;5062585;28;20226;-46
2021/05/01 05:18:20;;;;;;;21.17;18.97;;;11.20;99.90;;;;;;5059311;28;20178;-47
2021/05/01 05:20:46;;;;;;;22.87;20.47;;;11.20;99.90;;;;;;5063943;28;20171;-42
2021/05/01 05:23:12;;;;;;;23.43;20.93;;;11.10;99.90;;;;;;5056950;28;20201;-49
2021/05/01 05:25:38;;;;;;;23.43;20.97;;;11.00;99.90;;;;;;5075473;28;20166;-44
2021/05/01 05:28:04;;;;;;;22.67;20.30;;;11.00;99.90;;;;;;5073868;28;20316;-48
2021/05/01 05:30:29;;;;;;;22.13;19.73;;;10.90;99.90;;;;;;5063294;28;20565;-50
2021/05/01 05:32:56;;;;;;;23.67;21.27;;;10.80;99.90;;;;;;5058300;28;20294;-49
2021/05/01 05:35:22;;;;;;;23.60;21.10;;;10.70;99.90;;;;;;5055306;28;20175;-50
2021/05/01 05:37:47;;;;;;;24.10;21.53;;;10.60;99.90;;;;;;5068801;28;20214;-45
2021/05/01 05:40:14;;;;;;;23.63;21.13;;;10.50;99.90;;;;;;5075479;28;20174;-42
2021/05/01 05:42:41;;;;;;;26.17;23.37;;;10.60;99.90;;;;;;5064565;28;20182;-44
2021/05/01 05:45:08;;;;;;;24.43;21.83;;;10.60;99.90;;;;;;5073397;28;20232;-49
2021/05/01 05:47:33;;;;;;;23.30;20.90;;;10.50;99.90;;;;;;5074595;28;20273;-42
2021/05/01 05:49:59;;;;;;;25.43;22.83;;;10.60;99.90;;;;;;5067056;28;20210;-46
2021/05/01 05:52:24;;;;;;;25.43;22.77;;;10.70;99.90;;;;;;5054878;28;20207;-44
2021/05/01 05:54:50;;;;;;;26.20;23.40;;;10.70;99.90;;;;;;5061123;28;20175;-50
2021/05/01 05:57:16;;;;;;;26.27;23.53;;;10.60;99.90;;;;;;5075117;28;20182;-46
2021/05/01 05:59:43;;;;;;;27.80;23.90;;;10.50;99.90;;;;;;5070473;28;20182;-52
2021/05/01 06:02:13;;;;;;;26.00;23.20;;;10.50;99.90;;;;;;5054981;28;20688;-42
2021/05/01 06:04:49;;;;;;;26.00;23.37;;;10.40;99.90;;;;;;5055779;28;20651;-42
2021/05/01 06:07:26;;;;;;;27.77;24.50;;;10.40;99.90;;;;;;5055020;28;20206;-45
2021/05/01 06:09:53;;;;;;;26.93;24.07;;;10.40;99.90;;;;;;5072494;28;20512;-49
2021/05/01 06:12:20;;;;;;;26.40;23.57;;;10.40;99.90;;;;;;5074207;28;20210;-46
2021/05/01 06:14:47;;;;;;;26.57;23.77;;;10.40;99.90;;;;;;5057464;28;20179;-49
2021/05/01 06:17:13;;;;;;;26.87;23.93;;;10.40;99.90;;;;;;5054564;28;20191;-52
2021/05/01 06:19:40;;;;;;;25.87;23.17;;;10.50;99.90;;;;;;5055095;28;20558;-44
2021/05/01 06:22:06;;;;;;;25.30;22.60;;;10.60;99.90;;;;;;5066309;28;20193;-45
2021/05/01 06:24:32;;;;;;;26.80;23.90;;;10.80;99.90;;;;;;5061700;28;20281;-49
2021/05/01 06:26:58;;;;;;;25.37;22.77;;;10.90;99.90;;;;;;5072470;28;20733;-45
2021/05/01 06:29:25;;;;;;;25.00;22.33;;;11.10;99.90;;;;;;5068978;28;20188;-52
2021/05/01 06:31:51;;;;;;;26.73;22.93;;;11.40;99.90;;;;;;5057893;28;20693;-42
2021/05/01 06:34:16;;;;;;;25.30;22.60;;;11.70;99.90;;;;;;5064311;28;20210;-47
2021/05/01 06:36:42;;;;;;;26.50;23.47;;;11.70;99.90;;;;;;5054121;28;20230;-49
2021/05/01 06:39:09;;;;;;;25.70;23.00;;;11.70;99.90;;;;;;5064868;28;20225;-50
2021/05/01 06:41:43;;;;;;;27.53;24.63;;;11.60;99.90;;;;;;5054387;28;20531;-47
2021/05/01 06:44:15;;;;;;;23.47;21.07;;;11.60;99.90;;;;;;5058415;28;20182;-50
2021/05/01 06:46:44;;;;;;;25.10;22.50;;;11.70;99.90;;;;;;5060132;28;20682;-42
2021/05/01 06:49:28;;;;;;;23.13;20.63;;;11.80;99.90;;;;;;5062419;28;20190;-45
2021/05/01 06:51:56;;;;;;;23.80;21.30;;;11.80;99.90;;;;;;5065571;28;20217;-47
2021/05/01 06:54:23;;;;;;;23.07;20.63;;;12.00;99.90;;;;;;5059652;28;20714;-56
2021/05/01 06:56:49;;;;;;;23.67;21.27;;;12.20;99.90;;;;;;5054080;28;20564;-46
2021/05/01 06:59:15;;;;;;;24.63;22.13;;;12.50;99.90;;;;;;5053251;28;20179;-49
2021/05/01 07:01:45;;;;;;;23.00;20.70;;;12.60;99.90;;;;;;5058593;28;20245;-52
2021/05/01 07:04:12;;;;;;;22.57;19.90;;;12.50;99.90;;;;;;5063583;28;20584;-46
2021/05/01 07:06:39;;;;;;;22.53;19.67;;;12.60;99.90;;;;;;5067818;28;20657;-45
2021/05/01 07:09:05;;;;;;;22.47;20.17;;;12.60;99.90;;;;;;5053621;28;20195;-46
2021/05/01 07:11:31;;;;;;;22.87;20.53;;;12.90;99.90;;;;;;5064340;28;20295;-52
2021/05/01 07:13:58;;;;;;;22.80;20.47;;;13.00;99.90;;;;;;5071776;28;20483;-46
2021/05/01 07:16:24;;;;;;;20.97;18.87;;;12.90;99.90;;;;;;5053565;28;20690;-43
2021/05/01 07:18:50;;;;;;;21.13;18.93;;;13.00;99.90;;;;;;5054530;28;20226;-50
2021/05/01 07:21:17;;;;;;;22.03;19.83;;;13.20;99.90;;;;;;5063714;28;20179;-41
2021/05/01 07:23:43;;;;;;;22.27;19.87;;;13.10;99.90;;;;;;5059959;28;20285;-45
2021/05/01 07:26:13;;;;;;;20.40;18.30;;;13.10;99.90;;;;;;5061613;28;20666;-53
2021/05/01 07:28:44;;;;;;;22.03;19.83;;;13.30;99.90;;;;;;5054767;28;20684;-50
2021/05/01 07:31:27;;;;;;;20.73;18.63;;;15.60;99.90;;;;;;5053588;28;20297;-42
2021/05/01 07:33:57;;;;;;;20.40;18.30;;;13.60;99.90;;;;;;5062298;28;20209;-46
2021/05/01 07:36:45;;;;;;;21.60;19.30;;;13.60;99.90;;;;;;5064003;28;20727;-47
2021/05/01 07:39:12;;;;;;;22.20;19.97;;;13.50;99.90;;;;;;5055065;28;20195;-47
2021/05/01 07:41:44;;;;;;;21.60;19.40;;;13.40;99.90;;;;;;5063837;28;20642;-49
2021/05/01 07:44:09;;;;;;;21.60;19.47;;;13.40;99.90;;;;;;5064658;28;20205;-46
2021/05/01 07:46:39;;;;;;;20.07;18.07;;;13.50;99.90;;;;;;5052641;28;20207;-47
2021/05/01 07:49:09;;;;;;;19.33;17.33;;;13.70;99.90;;;;;;5059308;28;20652;-50
2021/05/01 07:51:38;;;;;;;19.10;17.20;;;13.90;99.90;;;;;;5052987;28;20261;-43
2021/05/01 07:54:04;;;;;;;18.90;17.00;;;13.70;99.90;;;;;;5056141;28;20258;-49
2021/05/01 07:56:30;;;;;;;19.60;17.60;;;13.80;99.90;;;;;;5068654;28;20221;-47
2021/05/01 07:58:56;;;;;;;19.63;17.60;;;13.80;99.90;;;;;;5063946;28;20207;-42
2021/05/01 08:01:22;;;;;;;19.53;17.63;;;13.90;99.90;;;;;;5058160;28;20244;-55
2021/05/01 08:03:48;;;;;;;21.27;19.17;;;14.00;99.90;;;;;;5073517;28;20539;-52
2021/05/01 08:06:14;;;;;;;20.93;18.80;;;14.00;99.90;;;;;;5057116;28;20687;-45
2021/05/01 08:08:40;;;;;;;20.53;18.33;;;14.00;99.90;;;;;;5053819;28;20202;-46
2021/05/01 08:11:05;;;;;;;21.13;19.03;;;13.90;99.90;;;;;;5069850;28;20344;-49
2021/05/01 08:13:31;;;;;;;20.50;18.40;;;14.00;99.90;;;;;;5060196;28;20211;-51
2021/05/01 08:15:57;;;;;;;22.60;20.30;;;14.10;99.90;;;;;;5065041;28;20204;-42
2021/05/01 08:18:22;;;;;;;20.43;18.33;;;14.10;99.90;;;;;;5068884;28;20270;-47
2021/05/01 08:20:50;;;;;;;20.90;18.73;;;14.10;99.90;;;;;;5071362;28;20178;-41
2021/05/01 08:23:16;;;;;;;20.47;18.47;;;14.10;99.90;;;;;;5069905;28;20188;-42
2021/05/01 08:25:41;;;;;;;20.30;18.20;;;14.20;99.90;;;;;;5063996;28;20173;-46
2021/05/01 08:28:07;;;;;;;20.57;18.37;;;14.10;99.90;;;;;;5077108;28;20181;-49
2021/05/01 08:30:33;;;;;;;20.83;18.80;;;14.10;99.90;;;;;;5062159;28;20242;-41
2021/05/01 08:32:58;;;;;;;21.47;19.13;;;14.10;99.90;;;;;;5059143;28;20258;-50
2021/05/01 08:35:24;;;;;;;23.83;21.43;;;13.90;99.90;;;;;;5074339;28;20281;-47
2021/05/01 08:37:50;;;;;;;21.63;19.53;;;13.80;99.90;;;;;;5076158;28;20201;-45
2021/05/01 08:40:16;;;;;;;21.63;19.43;;;13.90;99.90;;;;;;5075769;28;20180;-54
2021/05/01 08:42:46;;;;;;;21.30;19.10;;;14.00;99.90;;;;;;5076147;28;20608;-46
2021/05/01 08:45:16;;;;;;;21.83;19.70;;;14.00;99.90;;;;;;5076604;28;20176;-46
2021/05/01 08:47:44;;;;;;;20.80;18.77;;;14.20;99.90;;;;;;5076234;28;20211;-45
2021/05/01 08:50:31;;;;;;;20.30;18.30;;;14.50;99.90;;;;;;5076266;28;20188;-42
2021/05/01 08:52:59;;;;;;;19.20;17.30;;;14.60;99.90;;;;;;5079427;28;20227;-47
2021/05/01 08:55:26;;;;;;;20.37;18.23;;;15.00;99.90;;;;;;5093449;28;20174;-45
2021/05/01 08:57:52;;;;;;;19.57;17.67;;;15.30;99.90;;;;;;5095591;28;20580;-51
2021/05/01 09:00:18;;;;;;;18.73;16.83;;;15.60;99.90;;;;;;5095638;28;20614;-42
2021/05/01 09:02:44;;;;;;;20.80;18.83;;;15.90;99.90;;;;;;5076661;28;20174;-55
2021/05/01 09:05:11;;;;;;;19.20;17.30;;;15.90;99.90;;;;;;5069281;28;20190;-43
2021/05/01 09:07:45;;;;;;;19.53;17.40;;;15.90;99.90;;;;;;5057778;28;20202;-44
2021/05/01 09:10:12;;;;;;;19.07;17.27;;;16.00;99.90;;;;;;5075949;28;20174;-45
2021/05/01 09:12:45;;;;;;;18.23;16.47;;;16.10;99.90;;;;;;5075921;28;20217;-42
2021/05/01 09:15:17;;;;;;;17.97;16.27;;;16.00;99.90;;;;;;5075725;28;20185;-46
2021/05/01 09:17:44;;;;;;;18.40;16.60;;;15.90;99.90;;;;;;5076295;28;20195;-42
2021/05/01 09:20:12;;;;;;;17.67;15.97;;;15.80;99.90;;;;;;5075621;28;20518;-45
2021/05/01 09:23:03;;;;;;;19.03;17.23;;;15.80;99.90;;;;;;5074819;28;20183;-44
2021/05/01 09:25:47;;;;;;;17.63;15.93;;;16.10;99.90;;;;;;5075759;28;20190;-50
2021/05/01 09:28:14;;;;;;;16.97;15.37;;;16.40;99.90;;;;;;5076087;28;20189;-54
2021/05/01 09:30:44;;;;;;;16.13;14.63;;;16.80;99.90;;;;;;5076002;28;20186;-48
2021/05/01 09:33:25;;;;;;;18.17;16.37;;;17.20;99.90;;;;;;5075840;28;20186;-42
2021/05/01 09:36:00;;;;;;;18.67;16.97;;;17.30;99.90;;;;;;5075558;28;20237;-45
2021/05/01 09:38:43;;;;;;;16.60;15.03;;;17.40;99.90;;;;;;5075471;28;20184;-46
2021/05/01 09:41:13;;;;;;;16.23;14.67;;;17.60;99.90;;;;;;5075317;28;20195;-48
2021/05/01 09:44:29;;;;;;;14.93;13.40;;;18.10;99.90;;;;;;5075648;28;20187;-49
2021/05/01 09:46:55;;;;;;;14.47;13.17;;;18.40;99.90;;;;;;4974347;28;20221;-43
2021/05/01 09:49:24;;;;;;;16.07;14.53;;;18.60;99.90;;;;;;4974349;28;20185;-48
2021/05/01 09:52:00;;;;;;;15.23;13.83;;;18.80;99.90;;;;;;4974295;28;20205;-46
2021/05/01 09:54:29;;;;;;;15.30;13.80;;;18.90;99.90;;;;;;4975064;28;20302;-50
2021/05/01 09:56:59;;;;;;;14.77;13.37;;;18.80;99.90;;;;;;4974526;28;20209;-52
2021/05/01 09:59:42;;;;;;;19.07;17.13;;;18.80;99.90;;;;;;4974753;28;20174;-43
2021/05/01 10:02:10;;;;;;;17.60;16.00;;;18.70;99.90;;;;;;4974107;28;20706;-47
2021/05/01 10:04:36;;;;;;;15.80;14.40;;;18.40;99.90;;;;;;4974289;28;20181;-51
2021/05/01 10:07:09;;;;;;;16.13;14.53;;;18.30;99.90;;;;;;4973284;28;20218;-47
2021/05/01 10:09:38;;;;;;;16.37;14.63;;;18.50;99.90;;;;;;4973184;28;20190;-44
2021/05/01 10:12:15;;;;;;;15.03;13.70;;;18.90;99.90;;;;;;4973706;28;20566;-47
2021/05/01 10:14:51;;;;;;;13.53;12.23;;;19.40;99.90;;;;;;4972812;28;20177;-43
2021/05/01 10:17:22;;;;;;;13.80;12.50;;;19.90;99.90;;;;;;4974121;28;20209;-45
2021/05/01 10:20:01;;;;;;;14.77;13.37;;;20.30;99.90;;;;;;4974207;28;20186;-52
2021/05/01 10:22:28;;;;;;;15.80;14.40;;;20.70;99.90;;;;;;5011664;28;20232;-43
2021/05/01 10:24:55;;;;;;;14.88;13.55;;;20.80;99.90;;;;;;5054745;28;20262;-51
2021/05/01 10:27:22;;;;;;;13.45;12.15;;;20.90;99.90;;;;;;5089168;28;20194;-47
2021/05/01 10:30:12;;;;;;;13.35;12.10;;;21.10;99.90;;;;;;5072007;28;20619;-47
2021/05/01 10:33:18;;;;;;;14.20;12.90;;;21.40;99.90;;;;;;5071501;28;20223;-49
2021/05/01 10:36:08;;;;;;;14.45;13.15;;;21.50;99.90;;;;;;5074544;28;20233;-43
2021/05/01 10:38:34;;;;;;;14.35;12.95;;;21.10;99.90;;;;;;5067302;28;20647;-46
2021/05/01 10:41:02;;;;;;;14.40;13.20;;;20.80;99.90;;;;;;5054588;28;20172;-45
2021/05/01 10:43:33;;;;;;;13.55;12.35;;;20.90;99.90;;;;;;5054511;28;20510;-55
2021/05/01 10:46:06;;;;;;;14.60;13.23;;;21.00;99.90;;;;;;5054618;28;20206;-49
2021/05/01 10:48:47;;;;;;;12.77;11.68;;;20.90;99.90;;;;;;5054336;28;20199;-46
2021/05/01 10:51:14;;;;;;;15.13;13.30;;;20.60;99.90;;;;;;5054101;28;20593;-53
2021/05/01 10:53:41;;;;;;;13.33;12.07;;;20.30;99.90;;;;;;5054612;28;20612;-46
2021/05/01 10:56:09;;;;;;;14.40;12.97;;;20.10;99.90;;;;;;5054167;28;20508;-47
2021/05/01 10:58:46;;;;;;;14.53;13.10;;;20.00;99.90;;;;;;5053947;28;20519;-45
2021/05/01 11:01:11;;;;;;;14.37;13.07;;;19.50;99.90;;;;;;5052660;28;20260;-50
2021/05/01 11:03:47;;;;;;;14.00;12.70;;;19.50;99.90;;;;;;5053805;28;20549;-48
2021/05/01 11:06:24;;;;;;;14.17;12.87;;;19.90;99.90;;;;;;5053169;28;20190;-49
2021/05/01 11:08:59;;;;;;;13.70;12.40;;;20.30;99.90;;;;;;5053806;28;20202;-45
2021/05/01 11:11:34;;;;;;;13.43;12.13;;;20.40;99.90;;;;;;5053637;28;20623;-42
2021/05/01 11:14:23;;;;;;;11.80;10.70;;;20.50;99.90;;;;;;5052619;28;20195;-51
2021/05/01 11:17:03;;;;;;;12.70;11.48;;;20.70;99.90;;;;;;5035873;28;20230;-50
2021/05/01 11:19:31;;;;;;;11.35;10.18;;;20.70;99.90;;;;;;5055557;28;20177;-43
2021/05/01 11:21:58;;;;;;;12.40;11.13;;;21.10;99.90;;;;;;5062445;28;20173;-46
2021/05/01 11:24:24;;;;;;;12.13;11.02;;;21.50;99.90;;;;;;5070232;28;20208;-46
2021/05/01 11:26:50;;;;;;;12.43;11.32;;;21.70;99.90;;;;;;5070536;28;20218;-42
2021/05/01 11:29:17;;;;;;;11.98;10.88;;;21.70;99.90;;;;;;5071578;28;20176;-42
2021/05/01 11:31:45;;;;;;;11.48;10.38;;;21.60;99.90;;;;;;5062381;28;20556;-46
2021/05/01 11:34:13;;;;;;;10.80;9.80;;;21.60;99.90;;;;;;5046382;28;20258;-47
2021/05/01 11:36:50;;;;;;;11.75;10.57;;;21.70;99.90;;;;;;5064045;28;20190;-48
2021/05/01 11:39:16;;;;;;;12.23;11.05;;;21.80;99.90;;;;;;5063851;28;20181;-43
2021/05/01 11:41:44;;;;;;;10.73;9.73;;;21.40;99.90;;;;;;5065555;28;20185;-53
2021/05/01 11:44:12;;;;;;;11.25;10.25;;;21.30;99.90;;;;;;5063210;28;20194;-46
2021/05/01 11:46:44;;;;;;;10.57;9.18;;;21.30;99.90;;;;;;5066317;28;20288;-43
2021/05/01 11:49:10;;;;;;;12.27;11.07;;;21.40;99.90;;;;;;5064224;28;20178;-44
2021/05/01 11:51:48;;;;;;;14.52;13.10;;;21.30;99.90;;;;;;5064541;28;20200;-50
2021/05/01 11:54:53;;;;;;;14.50;13.20;;;21.10;99.90;;;;;;5067410;28;20251;-55
2021/05/01 11:57:30;;;;;;;13.20;11.85;;;20.80;99.90;;;;;;5067749;28;20198;-53
2021/05/01 11:59:59;;;;;;;14.33;12.97;;;20.50;99.90;;;;;;5062503;28;20650;-45
2021/05/01 12:02:39;;;;;;;14.07;12.70;;;20.30;99.90;;;;;;5057061;28;20175;-51
2021/05/01 12:05:18;;;;;;;13.53;12.33;;;20.10;99.90;;;;;;5061670;28;20213;-51
2021/05/01 12:07:55;;;;;;;12.90;11.70;;;20.20;99.90;;;;;;5077192;28;20198;-50
2021/05/01 12:10:22;;;;;;;13.40;12.20;;;20.30;99.90;;;;;;5077063;28;20568;-46
2021/05/01 12:13:11;;;;;;;13.52;12.23;;;20.50;99.90;;;;;;5076549;28;20210;-49
2021/05/01 12:15:51;;;;;;;13.57;12.38;;;20.70;99.90;;;;;;5076739;28;20631;-53
2021/05/01 12:18:17;;;;;;;13.30;12.00;;;21.00;99.90;;;;;;5076808;28;20171;-46
2021/05/01 12:20:43;;;;;;;12.70;11.55;;;21.00;99.90;;;;;;5077052;28;20187;-45
2021/05/01 12:23:14;;;;;;;14.60;13.10;;;20.80;99.90;;;;;;5076696;28;20558;-46
2021/05/01 12:25:42;;;;;;;14.90;13.40;;;20.80;99.90;;;;;;5076749;28;20175;-47
2021/05/01 12:28:09;;;;;;;14.68;13.27;;;20.60;99.90;;;;;;5076936;28;20197;-47
2021/05/01 12:30:43;;;;;;;15.25;13.95;;;20.60;99.90;;;;;;5076907;28;20182;-48
2021/05/01 12:33:27;;;;;;;14.38;12.98;;;20.60;99.90;;;;;;5076485;28;20207;-47
2021/05/01 12:35:56;;;;;;;16.50;14.97;;;20.50;99.90;;;;;;5076368;28;20201;-48